sensor_id;sensor_type;location;lat;lon;timestamp;temperature;humidity
78733;DHT22;68056;52.530;5.454;2023-11-19T00:00:53;12.40;82.10
78733;DHT22;68056;52.530;5.454;2023-11-19T00:03:18;12.40;82.10
78733;DHT22;68056;52.530;5.454;2023-11-19T00:05:44;12.30;82.00
78733;DHT22;68056;52.530;5.454;2023-11-19T00:08:13;12.30;82.00
78733;DHT22;68056;52.530;5.454;2023-11-19T00:13:14;12.30;81.90
78733;DHT22;68056;52.530;5.454;2023-11-19T00:15:39;12.30;82.00
78733;DHT22;68056;52.530;5.454;2023-11-19T00:18:05;12.30;81.90
78733;DHT22;68056;52.530;5.454;2023-11-19T00:20:31;12.20;81.90
78733;DHT22;68056;52.530;5.454;2023-11-19T00:22:56;12.20;81.90
78733;DHT22;68056;52.530;5.454;2023-11-19T00:25:22;12.20;81.90
78733;DHT22;68056;52.530;5.454;2023-11-19T00:27:48;12.20;81.90
78733;DHT22;68056;52.530;5.454;2023-11-19T00:30:16;12.20;81.80
78733;DHT22;68056;52.530;5.454;2023-11-19T00:32:42;12.20;81.90
78733;DHT22;68056;52.530;5.454;2023-11-19T00:35:11;12.20;81.80
78733;DHT22;68056;52.530;5.454;2023-11-19T00:37:36;12.20;81.70
78733;DHT22;68056;52.530;5.454;2023-11-19T00:40:02;12.20;81.80
78733;DHT22;68056;52.530;5.454;2023-11-19T00:42:31;12.20;81.70
78733;DHT22;68056;52.530;5.454;2023-11-19T00:44:56;12.20;81.70
78733;DHT22;68056;52.530;5.454;2023-11-19T00:47:24;12.20;81.60
78733;DHT22;68056;52.530;5.454;2023-11-19T00:50:00;12.20;81.70
78733;DHT22;68056;52.530;5.454;2023-11-19T00:52:27;12.10;81.60
78733;DHT22;68056;52.530;5.454;2023-11-19T00:54:56;12.10;81.50
78733;DHT22;68056;52.530;5.454;2023-11-19T00:57:22;12.10;81.60
78733;DHT22;68056;52.530;5.454;2023-11-19T01:00:04;12.00;81.60
78733;DHT22;68056;52.530;5.454;2023-11-19T01:02:34;12.00;81.60
78733;DHT22;68056;52.530;5.454;2023-11-19T01:05:03;12.00;81.50
78733;DHT22;68056;52.530;5.454;2023-11-19T01:07:34;11.90;81.50
78733;DHT22;68056;52.530;5.454;2023-11-19T01:10:01;11.90;81.60
78733;DHT22;68056;52.530;5.454;2023-11-19T01:12:29;11.90;81.50
78733;DHT22;68056;52.530;5.454;2023-11-19T01:15:02;11.90;81.50
78733;DHT22;68056;52.530;5.454;2023-11-19T01:17:30;11.90;81.50
78733;DHT22;68056;52.530;5.454;2023-11-19T01:19:57;11.90;81.50
78733;DHT22;68056;52.530;5.454;2023-11-19T01:22:22;11.80;81.50
78733;DHT22;68056;52.530;5.454;2023-11-19T01:24:48;11.80;81.60
78733;DHT22;68056;52.530;5.454;2023-11-19T01:27:14;11.80;81.50
78733;DHT22;68056;52.530;5.454;2023-11-19T01:29:42;11.80;81.50
78733;DHT22;68056;52.530;5.454;2023-11-19T01:32:08;11.80;81.50
78733;DHT22;68056;52.530;5.454;2023-11-19T01:34:34;11.80;81.50
78733;DHT22;68056;52.530;5.454;2023-11-19T01:37:00;11.90;81.50
78733;DHT22;68056;52.530;5.454;2023-11-19T01:39:25;11.90;81.50
78733;DHT22;68056;52.530;5.454;2023-11-19T01:41:51;12.00;81.40
78733;DHT22;68056;52.530;5.454;2023-11-19T01:44:17;12.00;81.30
78733;DHT22;68056;52.530;5.454;2023-11-19T01:46:44;12.00;81.20
78733;DHT22;68056;52.530;5.454;2023-11-19T01:49:14;12.00;81.20
78733;DHT22;68056;52.530;5.454;2023-11-19T01:51:41;12.10;81.20
78733;DHT22;68056;52.530;5.454;2023-11-19T01:54:11;12.10;81.20
78733;DHT22;68056;52.530;5.454;2023-11-19T01:56:48;12.20;81.10
78733;DHT22;68056;52.530;5.454;2023-11-19T01:59:14;12.20;81.10
78733;DHT22;68056;52.530;5.454;2023-11-19T02:01:41;12.20;81.10
78733;DHT22;68056;52.530;5.454;2023-11-19T02:04:07;12.20;81.10
78733;DHT22;68056;52.530;5.454;2023-11-19T02:06:34;12.20;81.00
78733;DHT22;68056;52.530;5.454;2023-11-19T02:09:01;12.20;81.00
78733;DHT22;68056;52.530;5.454;2023-11-19T02:11:33;12.30;81.10
78733;DHT22;68056;52.530;5.454;2023-11-19T02:13:59;12.20;81.00
78733;DHT22;68056;52.530;5.454;2023-11-19T02:16:27;12.20;81.00
78733;DHT22;68056;52.530;5.454;2023-11-19T02:18:55;12.20;80.90
78733;DHT22;68056;52.530;5.454;2023-11-19T02:21:21;12.20;80.90
78733;DHT22;68056;52.530;5.454;2023-11-19T02:23:47;12.20;80.90
78733;DHT22;68056;52.530;5.454;2023-11-19T02:26:17;12.10;81.00
78733;DHT22;68056;52.530;5.454;2023-11-19T02:28:44;12.10;81.00
78733;DHT22;68056;52.530;5.454;2023-11-19T02:31:11;12.10;80.90
78733;DHT22;68056;52.530;5.454;2023-11-19T02:33:38;12.10;80.90
78733;DHT22;68056;52.530;5.454;2023-11-19T02:36:06;12.00;80.90
78733;DHT22;68056;52.530;5.454;2023-11-19T02:38:36;12.00;80.90
78733;DHT22;68056;52.530;5.454;2023-11-19T02:41:06;11.90;80.90
78733;DHT22;68056;52.530;5.454;2023-11-19T02:43:36;11.90;80.90
78733;DHT22;68056;52.530;5.454;2023-11-19T02:46:03;11.90;80.90
78733;DHT22;68056;52.530;5.454;2023-11-19T02:48:33;11.80;80.90
78733;DHT22;68056;52.530;5.454;2023-11-19T02:51:01;11.80;80.90
78733;DHT22;68056;52.530;5.454;2023-11-19T02:53:29;11.70;80.80
78733;DHT22;68056;52.530;5.454;2023-11-19T02:55:55;11.70;80.90
78733;DHT22;68056;52.530;5.454;2023-11-19T02:58:27;11.70;80.90
78733;DHT22;68056;52.530;5.454;2023-11-19T03:00:54;11.70;80.80
78733;DHT22;68056;52.530;5.454;2023-11-19T03:03:24;11.70;80.70
78733;DHT22;68056;52.530;5.454;2023-11-19T03:06:01;11.60;80.70
78733;DHT22;68056;52.530;5.454;2023-11-19T03:08:30;11.70;80.80
78733;DHT22;68056;52.530;5.454;2023-11-19T03:11:08;11.70;80.70
78733;DHT22;68056;52.530;5.454;2023-11-19T03:13:35;11.70;80.60
78733;DHT22;68056;52.530;5.454;2023-11-19T03:16:01;11.70;80.50
78733;DHT22;68056;52.530;5.454;2023-11-19T03:18:27;11.70;80.30
78733;DHT22;68056;52.530;5.454;2023-11-19T03:20:53;11.70;80.40
78733;DHT22;68056;52.530;5.454;2023-11-19T03:23:19;11.70;80.30
78733;DHT22;68056;52.530;5.454;2023-11-19T03:25:45;11.70;80.30
78733;DHT22;68056;52.530;5.454;2023-11-19T03:28:10;11.60;80.20
78733;DHT22;68056;52.530;5.454;2023-11-19T03:30:37;11.60;80.30
78733;DHT22;68056;52.530;5.454;2023-11-19T03:33:03;11.50;80.30
78733;DHT22;68056;52.530;5.454;2023-11-19T03:35:29;11.50;80.30
78733;DHT22;68056;52.530;5.454;2023-11-19T03:37:55;11.50;80.20
78733;DHT22;68056;52.530;5.454;2023-11-19T03:40:21;11.50;80.20
78733;DHT22;68056;52.530;5.454;2023-11-19T03:42:47;11.50;80.20
78733;DHT22;68056;52.530;5.454;2023-11-19T03:45:12;11.50;80.20
78733;DHT22;68056;52.530;5.454;2023-11-19T03:47:38;11.50;80.20
78733;DHT22;68056;52.530;5.454;2023-11-19T03:50:05;11.50;80.10
78733;DHT22;68056;52.530;5.454;2023-11-19T03:52:31;11.50;80.10
78733;DHT22;68056;52.530;5.454;2023-11-19T03:54:57;11.50;80.10
78733;DHT22;68056;52.530;5.454;2023-11-19T03:57:23;11.50;80.10
78733;DHT22;68056;52.530;5.454;2023-11-19T03:59:49;11.50;80.10
78733;DHT22;68056;52.530;5.454;2023-11-19T04:02:15;11.50;80.00
78733;DHT22;68056;52.530;5.454;2023-11-19T04:04:41;11.50;80.00
78733;DHT22;68056;52.530;5.454;2023-11-19T04:07:07;11.50;79.90
78733;DHT22;68056;52.530;5.454;2023-11-19T04:09:33;11.50;79.90
78733;DHT22;68056;52.530;5.454;2023-11-19T04:11:59;11.50;79.80
78733;DHT22;68056;52.530;5.454;2023-11-19T04:14:26;11.50;79.80
78733;DHT22;68056;52.530;5.454;2023-11-19T04:16:51;11.50;79.70
78733;DHT22;68056;52.530;5.454;2023-11-19T04:19:18;11.50;79.60
78733;DHT22;68056;52.530;5.454;2023-11-19T04:21:43;11.50;79.50
78733;DHT22;68056;52.530;5.454;2023-11-19T04:24:10;11.50;79.60
78733;DHT22;68056;52.530;5.454;2023-11-19T04:26:44;11.50;79.40
78733;DHT22;68056;52.530;5.454;2023-11-19T04:29:14;11.50;79.40
78733;DHT22;68056;52.530;5.454;2023-11-19T04:31:40;11.50;79.30
78733;DHT22;68056;52.530;5.454;2023-11-19T04:34:06;11.50;79.30
78733;DHT22;68056;52.530;5.454;2023-11-19T04:36:32;11.60;79.20
78733;DHT22;68056;52.530;5.454;2023-11-19T04:39:01;11.60;79.10
78733;DHT22;68056;52.530;5.454;2023-11-19T04:41:27;11.60;79.10
78733;DHT22;68056;52.530;5.454;2023-11-19T04:43:53;11.60;79.00
78733;DHT22;68056;52.530;5.454;2023-11-19T04:46:19;11.60;79.00
78733;DHT22;68056;52.530;5.454;2023-11-19T04:48:45;11.60;79.00
78733;DHT22;68056;52.530;5.454;2023-11-19T04:51:15;11.60;78.90
78733;DHT22;68056;52.530;5.454;2023-11-19T04:53:40;11.50;78.80
78733;DHT22;68056;52.530;5.454;2023-11-19T04:56:11;11.50;78.80
78733;DHT22;68056;52.530;5.454;2023-11-19T04:58:37;11.50;78.80
78733;DHT22;68056;52.530;5.454;2023-11-19T05:01:03;11.50;78.70
78733;DHT22;68056;52.530;5.454;2023-11-19T05:03:30;11.50;78.80
78733;DHT22;68056;52.530;5.454;2023-11-19T05:05:57;11.40;78.80
78733;DHT22;68056;52.530;5.454;2023-11-19T05:08:22;11.40;78.80
78733;DHT22;68056;52.530;5.454;2023-11-19T05:10:48;11.40;78.80
78733;DHT22;68056;52.530;5.454;2023-11-19T05:13:13;11.40;78.80
78733;DHT22;68056;52.530;5.454;2023-11-19T05:15:40;11.40;78.80
78733;DHT22;68056;52.530;5.454;2023-11-19T05:18:06;11.40;78.80
78733;DHT22;68056;52.530;5.454;2023-11-19T05:20:31;11.30;78.70
78733;DHT22;68056;52.530;5.454;2023-11-19T05:22:57;11.30;78.80
78733;DHT22;68056;52.530;5.454;2023-11-19T05:25:25;11.30;78.80
78733;DHT22;68056;52.530;5.454;2023-11-19T05:27:52;11.30;78.80
78733;DHT22;68056;52.530;5.454;2023-11-19T05:30:17;11.40;78.80
78733;DHT22;68056;52.530;5.454;2023-11-19T05:32:43;11.40;78.70
78733;DHT22;68056;52.530;5.454;2023-11-19T05:35:11;11.40;78.70
78733;DHT22;68056;52.530;5.454;2023-11-19T05:37:36;11.40;78.60
78733;DHT22;68056;52.530;5.454;2023-11-19T05:40:02;11.50;78.40
78733;DHT22;68056;52.530;5.454;2023-11-19T05:42:34;11.50;78.30
78733;DHT22;68056;52.530;5.454;2023-11-19T05:45:00;11.50;78.20
78733;DHT22;68056;52.530;5.454;2023-11-19T05:47:26;11.50;78.10
78733;DHT22;68056;52.530;5.454;2023-11-19T05:49:51;11.50;78.00
78733;DHT22;68056;52.530;5.454;2023-11-19T05:52:17;11.50;78.00
78733;DHT22;68056;52.530;5.454;2023-11-19T05:54:43;11.50;77.80
78733;DHT22;68056;52.530;5.454;2023-11-19T05:57:09;11.50;77.80
78733;DHT22;68056;52.530;5.454;2023-11-19T05:59:36;11.50;77.70
78733;DHT22;68056;52.530;5.454;2023-11-19T06:02:02;11.50;77.60
78733;DHT22;68056;52.530;5.454;2023-11-19T06:04:28;11.50;77.50
78733;DHT22;68056;52.530;5.454;2023-11-19T06:06:54;11.50;77.50
78733;DHT22;68056;52.530;5.454;2023-11-19T06:09:21;11.50;77.50
78733;DHT22;68056;52.530;5.454;2023-11-19T06:11:48;11.50;77.50
78733;DHT22;68056;52.530;5.454;2023-11-19T06:14:14;11.50;77.30
78733;DHT22;68056;52.530;5.454;2023-11-19T06:16:40;11.50;77.20
78733;DHT22;68056;52.530;5.454;2023-11-19T06:19:05;11.50;77.10
78733;DHT22;68056;52.530;5.454;2023-11-19T06:21:31;11.50;77.10
78733;DHT22;68056;52.530;5.454;2023-11-19T06:23:56;11.50;77.10
78733;DHT22;68056;52.530;5.454;2023-11-19T06:26:23;11.50;77.00
78733;DHT22;68056;52.530;5.454;2023-11-19T06:28:49;11.40;76.90
78733;DHT22;68056;52.530;5.454;2023-11-19T06:31:14;11.40;76.90
78733;DHT22;68056;52.530;5.454;2023-11-19T06:33:41;11.40;76.90
78733;DHT22;68056;52.530;5.454;2023-11-19T06:36:08;11.40;76.90
78733;DHT22;68056;52.530;5.454;2023-11-19T06:38:34;11.40;76.90
78733;DHT22;68056;52.530;5.454;2023-11-19T06:41:01;11.30;76.90
78733;DHT22;68056;52.530;5.454;2023-11-19T06:43:30;11.30;76.90
78733;DHT22;68056;52.530;5.454;2023-11-19T06:45:59;11.30;77.00
78733;DHT22;68056;52.530;5.454;2023-11-19T06:48:25;11.30;76.90
78733;DHT22;68056;52.530;5.454;2023-11-19T06:50:50;11.30;76.90
78733;DHT22;68056;52.530;5.454;2023-11-19T06:53:16;11.20;76.90
78733;DHT22;68056;52.530;5.454;2023-11-19T06:55:41;11.30;76.90
78733;DHT22;68056;52.530;5.454;2023-11-19T06:58:08;11.30;76.90
78733;DHT22;68056;52.530;5.454;2023-11-19T07:00:34;11.20;76.90
78733;DHT22;68056;52.530;5.454;2023-11-19T07:03:01;11.20;76.90
78733;DHT22;68056;52.530;5.454;2023-11-19T07:05:26;11.20;76.90
78733;DHT22;68056;52.530;5.454;2023-11-19T07:07:53;11.20;76.90
78733;DHT22;68056;52.530;5.454;2023-11-19T07:10:19;11.20;76.90
78733;DHT22;68056;52.530;5.454;2023-11-19T07:12:44;11.10;76.80
78733;DHT22;68056;52.530;5.454;2023-11-19T07:15:10;11.10;76.90
78733;DHT22;68056;52.530;5.454;2023-11-19T07:17:36;11.10;76.90
78733;DHT22;68056;52.530;5.454;2023-11-19T07:20:01;11.20;76.90
78733;DHT22;68056;52.530;5.454;2023-11-19T07:22:28;11.20;76.80
78733;DHT22;68056;52.530;5.454;2023-11-19T07:24:57;11.20;76.90
78733;DHT22;68056;52.530;5.454;2023-11-19T07:27:25;11.30;76.90
78733;DHT22;68056;52.530;5.454;2023-11-19T07:29:51;11.30;76.80
78733;DHT22;68056;52.530;5.454;2023-11-19T07:32:17;11.30;76.80
78733;DHT22;68056;52.530;5.454;2023-11-19T07:34:43;11.20;76.80
78733;DHT22;68056;52.530;5.454;2023-11-19T07:37:10;11.30;76.80
78733;DHT22;68056;52.530;5.454;2023-11-19T07:39:59;11.30;76.80
78733;DHT22;68056;52.530;5.454;2023-11-19T07:42:25;11.30;76.90
78733;DHT22;68056;52.530;5.454;2023-11-19T07:44:50;11.30;76.90
78733;DHT22;68056;52.530;5.454;2023-11-19T07:47:16;11.30;76.80
78733;DHT22;68056;52.530;5.454;2023-11-19T07:49:41;11.40;76.70
78733;DHT22;68056;52.530;5.454;2023-11-19T07:52:09;11.40;76.80
78733;DHT22;68056;52.530;5.454;2023-11-19T07:54:34;11.40;76.80
78733;DHT22;68056;52.530;5.454;2023-11-19T07:57:00;11.40;76.70
78733;DHT22;68056;52.530;5.454;2023-11-19T07:59:26;11.40;76.60
78733;DHT22;68056;52.530;5.454;2023-11-19T08:01:52;11.40;76.60
78733;DHT22;68056;52.530;5.454;2023-11-19T08:04:17;11.50;76.60
78733;DHT22;68056;52.530;5.454;2023-11-19T08:06:43;11.50;76.60
78733;DHT22;68056;52.530;5.454;2023-11-19T08:09:24;11.50;76.60
78733;DHT22;68056;52.530;5.454;2023-11-19T08:11:50;11.50;76.50
78733;DHT22;68056;52.530;5.454;2023-11-19T08:14:16;11.50;76.60
78733;DHT22;68056;52.530;5.454;2023-11-19T08:16:41;11.50;76.50
78733;DHT22;68056;52.530;5.454;2023-11-19T08:19:07;11.60;76.30
78733;DHT22;68056;52.530;5.454;2023-11-19T08:21:33;11.60;76.30
78733;DHT22;68056;52.530;5.454;2023-11-19T08:23:59;11.70;76.20
78733;DHT22;68056;52.530;5.454;2023-11-19T08:26:25;11.70;76.10
78733;DHT22;68056;52.530;5.454;2023-11-19T08:28:50;11.70;76.00
78733;DHT22;68056;52.530;5.454;2023-11-19T08:31:17;11.70;76.00
78733;DHT22;68056;52.530;5.454;2023-11-19T08:33:43;11.80;76.00
78733;DHT22;68056;52.530;5.454;2023-11-19T08:36:08;11.80;75.80
78733;DHT22;68056;52.530;5.454;2023-11-19T08:38:34;11.90;75.80
78733;DHT22;68056;52.530;5.454;2023-11-19T08:40:59;11.90;75.70
78733;DHT22;68056;52.530;5.454;2023-11-19T08:43:26;12.00;75.50
78733;DHT22;68056;52.530;5.454;2023-11-19T08:45:52;12.20;75.30
78733;DHT22;68056;52.530;5.454;2023-11-19T08:48:17;12.50;75.00
78733;DHT22;68056;52.530;5.454;2023-11-19T08:50:43;12.70;74.70
78733;DHT22;68056;52.530;5.454;2023-11-19T08:53:09;12.80;74.10
78733;DHT22;68056;52.530;5.454;2023-11-19T08:55:34;13.00;73.80
78733;DHT22;68056;52.530;5.454;2023-11-19T08:58:00;13.10;73.50
78733;DHT22;68056;52.530;5.454;2023-11-19T09:00:26;13.10;73.20
78733;DHT22;68056;52.530;5.454;2023-11-19T09:02:52;13.00;73.40
78733;DHT22;68056;52.530;5.454;2023-11-19T09:05:17;12.90;73.40
78733;DHT22;68056;52.530;5.454;2023-11-19T09:07:43;12.80;73.40
78733;DHT22;68056;52.530;5.454;2023-11-19T09:10:09;12.60;73.60
78733;DHT22;68056;52.530;5.454;2023-11-19T09:12:34;12.50;73.80
78733;DHT22;68056;52.530;5.454;2023-11-19T09:15:00;12.50;74.00
78733;DHT22;68056;52.530;5.454;2023-11-19T09:17:26;12.50;74.20
78733;DHT22;68056;52.530;5.454;2023-11-19T09:19:51;12.50;74.10
78733;DHT22;68056;52.530;5.454;2023-11-19T09:22:17;12.40;74.20
78733;DHT22;68056;52.530;5.454;2023-11-19T09:24:43;12.30;74.20
78733;DHT22;68056;52.530;5.454;2023-11-19T09:27:10;12.30;74.30
78733;DHT22;68056;52.530;5.454;2023-11-19T09:29:37;12.30;74.30
78733;DHT22;68056;52.530;5.454;2023-11-19T09:32:03;12.30;74.50
78733;DHT22;68056;52.530;5.454;2023-11-19T09:34:28;12.30;74.40
78733;DHT22;68056;52.530;5.454;2023-11-19T09:36:54;12.30;74.30
78733;DHT22;68056;52.530;5.454;2023-11-19T09:39:20;12.30;74.40
78733;DHT22;68056;52.530;5.454;2023-11-19T09:41:46;12.30;74.40
78733;DHT22;68056;52.530;5.454;2023-11-19T09:44:12;12.30;74.40
78733;DHT22;68056;52.530;5.454;2023-11-19T09:46:41;12.30;74.50
78733;DHT22;68056;52.530;5.454;2023-11-19T09:49:08;12.30;74.60
78733;DHT22;68056;52.530;5.454;2023-11-19T09:51:36;12.30;74.60
78733;DHT22;68056;52.530;5.454;2023-11-19T09:54:02;12.30;74.50
78733;DHT22;68056;52.530;5.454;2023-11-19T09:56:33;12.20;74.40
78733;DHT22;68056;52.530;5.454;2023-11-19T09:58:59;12.20;74.40
78733;DHT22;68056;52.530;5.454;2023-11-19T10:01:25;12.20;74.50
78733;DHT22;68056;52.530;5.454;2023-11-19T10:03:55;12.30;74.50
78733;DHT22;68056;52.530;5.454;2023-11-19T10:06:21;12.30;74.40
78733;DHT22;68056;52.530;5.454;2023-11-19T10:08:46;12.30;74.40
78733;DHT22;68056;52.530;5.454;2023-11-19T10:11:12;12.30;74.30
78733;DHT22;68056;52.530;5.454;2023-11-19T10:13:39;12.30;74.40
78733;DHT22;68056;52.530;5.454;2023-11-19T10:16:09;12.30;74.40
78733;DHT22;68056;52.530;5.454;2023-11-19T10:18:37;12.30;74.40
78733;DHT22;68056;52.530;5.454;2023-11-19T10:21:06;12.30;74.40
78733;DHT22;68056;52.530;5.454;2023-11-19T10:23:48;12.30;74.40
78733;DHT22;68056;52.530;5.454;2023-11-19T10:26:13;12.30;74.40
78733;DHT22;68056;52.530;5.454;2023-11-19T10:28:39;12.30;74.40
78733;DHT22;68056;52.530;5.454;2023-11-19T10:31:14;12.20;74.30
78733;DHT22;68056;52.530;5.454;2023-11-19T10:33:40;12.20;74.40
78733;DHT22;68056;52.530;5.454;2023-11-19T10:36:06;12.20;74.40
78733;DHT22;68056;52.530;5.454;2023-11-19T10:38:32;12.20;74.50
78733;DHT22;68056;52.530;5.454;2023-11-19T10:41:00;12.10;74.70
78733;DHT22;68056;52.530;5.454;2023-11-19T10:43:25;12.10;74.70
78733;DHT22;68056;52.530;5.454;2023-11-19T10:45:51;12.10;74.80
78733;DHT22;68056;52.530;5.454;2023-11-19T10:48:17;12.00;75.00
78733;DHT22;68056;52.530;5.454;2023-11-19T10:50:44;12.00;75.00
78733;DHT22;68056;52.530;5.454;2023-11-19T10:53:11;12.00;75.00
78733;DHT22;68056;52.530;5.454;2023-11-19T10:55:46;12.00;75.00
78733;DHT22;68056;52.530;5.454;2023-11-19T10:58:15;12.00;75.00
78733;DHT22;68056;52.530;5.454;2023-11-19T11:00:56;12.00;75.00
78733;DHT22;68056;52.530;5.454;2023-11-19T11:03:25;12.00;75.00
78733;DHT22;68056;52.530;5.454;2023-11-19T11:05:51;12.00;74.90
78733;DHT22;68056;52.530;5.454;2023-11-19T11:08:18;12.10;75.00
78733;DHT22;68056;52.530;5.454;2023-11-19T11:13:18;12.20;74.70
78733;DHT22;68056;52.530;5.454;2023-11-19T11:15:45;12.20;74.50
78733;DHT22;68056;52.530;5.454;2023-11-19T11:18:12;12.30;74.30
78733;DHT22;68056;52.530;5.454;2023-11-19T11:20:39;12.30;74.10
78733;DHT22;68056;52.530;5.454;2023-11-19T11:28:43;12.50;73.90
78733;DHT22;68056;52.530;5.454;2023-11-19T11:34:15;12.30;73.90
78733;DHT22;68056;52.530;5.454;2023-11-19T11:39:34;12.30;74.00
78733;DHT22;68056;52.530;5.454;2023-11-19T11:45:03;12.50;73.90
78733;DHT22;68056;52.530;5.454;2023-11-19T11:50:18;12.70;73.80
78733;DHT22;68056;52.530;5.454;2023-11-19T11:55:26;13.00;72.70
78733;DHT22;68056;52.530;5.454;2023-11-19T11:57:53;13.00;72.70
78733;DHT22;68056;52.530;5.454;2023-11-19T12:00:41;12.90;72.70
78733;DHT22;68056;52.530;5.454;2023-11-19T12:03:11;12.80;72.90
78733;DHT22;68056;52.530;5.454;2023-11-19T12:05:47;12.80;72.80
78733;DHT22;68056;52.530;5.454;2023-11-19T12:08:13;12.70;72.90
78733;DHT22;68056;52.530;5.454;2023-11-19T12:10:48;12.70;72.90
78733;DHT22;68056;52.530;5.454;2023-11-19T12:13:15;12.70;72.80
78733;DHT22;68056;52.530;5.454;2023-11-19T12:18:30;12.70;72.80
78733;DHT22;68056;52.530;5.454;2023-11-19T12:20:56;12.70;72.80
78733;DHT22;68056;52.530;5.454;2023-11-19T12:23:25;12.70;72.80
78733;DHT22;68056;52.530;5.454;2023-11-19T12:25:50;12.70;72.60
78733;DHT22;68056;52.530;5.454;2023-11-19T12:28:17;12.70;72.70
78733;DHT22;68056;52.530;5.454;2023-11-19T12:30:43;12.60;72.60
78733;DHT22;68056;52.530;5.454;2023-11-19T12:33:14;12.50;72.70
78733;DHT22;68056;52.530;5.454;2023-11-19T12:35:47;12.50;72.70
78733;DHT22;68056;52.530;5.454;2023-11-19T12:38:20;12.50;72.80
78733;DHT22;68056;52.530;5.454;2023-11-19T12:40:46;12.50;72.70
78733;DHT22;68056;52.530;5.454;2023-11-19T12:43:21;12.50;72.70
78733;DHT22;68056;52.530;5.454;2023-11-19T12:45:50;12.50;72.70
78733;DHT22;68056;52.530;5.454;2023-11-19T12:48:15;12.60;72.70
78733;DHT22;68056;52.530;5.454;2023-11-19T12:50:54;12.60;72.60
78733;DHT22;68056;52.530;5.454;2023-11-19T12:53:21;12.50;72.50
78733;DHT22;68056;52.530;5.454;2023-11-19T12:55:46;12.50;72.60
78733;DHT22;68056;52.530;5.454;2023-11-19T12:58:34;12.50;72.70
78733;DHT22;68056;52.530;5.454;2023-11-19T13:01:08;12.50;72.80
78733;DHT22;68056;52.530;5.454;2023-11-19T13:03:38;12.50;72.90
78733;DHT22;68056;52.530;5.454;2023-11-19T13:06:05;12.40;72.90
78733;DHT22;68056;52.530;5.454;2023-11-19T13:08:44;12.40;72.90
78733;DHT22;68056;52.530;5.454;2023-11-19T13:11:38;12.30;73.00
78733;DHT22;68056;52.530;5.454;2023-11-19T13:14:06;12.30;73.20
78733;DHT22;68056;52.530;5.454;2023-11-19T13:16:37;12.20;73.40
78733;DHT22;68056;52.530;5.454;2023-11-19T13:19:04;12.10;73.60
78733;DHT22;68056;52.530;5.454;2023-11-19T13:21:30;12.10;73.80
78733;DHT22;68056;52.530;5.454;2023-11-19T13:23:56;12.00;73.90
78733;DHT22;68056;52.530;5.454;2023-11-19T13:26:22;12.00;74.00
78733;DHT22;68056;52.530;5.454;2023-11-19T13:28:48;11.90;74.10
78733;DHT22;68056;52.530;5.454;2023-11-19T13:31:14;11.90;74.40
78733;DHT22;68056;52.530;5.454;2023-11-19T13:33:40;11.80;74.60
78733;DHT22;68056;52.530;5.454;2023-11-19T13:36:06;11.70;74.90
78733;DHT22;68056;52.530;5.454;2023-11-19T13:38:35;11.70;75.20
78733;DHT22;68056;52.530;5.454;2023-11-19T13:41:05;11.70;75.40
78733;DHT22;68056;52.530;5.454;2023-11-19T13:43:31;11.70;75.50
78733;DHT22;68056;52.530;5.454;2023-11-19T13:45:57;11.60;75.50
78733;DHT22;68056;52.530;5.454;2023-11-19T13:48:24;11.60;75.60
78733;DHT22;68056;52.530;5.454;2023-11-19T13:50:50;11.60;75.70
78733;DHT22;68056;52.530;5.454;2023-11-19T13:53:16;11.70;75.70
78733;DHT22;68056;52.530;5.454;2023-11-19T13:55:42;11.70;75.60
78733;DHT22;68056;52.530;5.454;2023-11-19T13:58:08;11.70;75.70
78733;DHT22;68056;52.530;5.454;2023-11-19T14:00:34;11.70;75.70
78733;DHT22;68056;52.530;5.454;2023-11-19T14:03:00;11.80;75.70
78733;DHT22;68056;52.530;5.454;2023-11-19T14:05:25;11.80;75.70
78733;DHT22;68056;52.530;5.454;2023-11-19T14:07:52;11.90;75.60
78733;DHT22;68056;52.530;5.454;2023-11-19T14:10:19;11.90;75.50
78733;DHT22;68056;52.530;5.454;2023-11-19T14:12:44;11.90;75.50
78733;DHT22;68056;52.530;5.454;2023-11-19T14:15:10;12.00;75.40
78733;DHT22;68056;52.530;5.454;2023-11-19T14:17:38;12.00;75.40
78733;DHT22;68056;52.530;5.454;2023-11-19T14:20:04;12.00;75.30
78733;DHT22;68056;52.530;5.454;2023-11-19T14:22:41;12.00;75.30
78733;DHT22;68056;52.530;5.454;2023-11-19T14:25:08;12.00;75.10
78733;DHT22;68056;52.530;5.454;2023-11-19T14:27:39;12.00;75.20
78733;DHT22;68056;52.530;5.454;2023-11-19T14:30:06;12.00;75.10
78733;DHT22;68056;52.530;5.454;2023-11-19T14:32:32;12.00;75.10
78733;DHT22;68056;52.530;5.454;2023-11-19T14:34:57;11.90;75.20
78733;DHT22;68056;52.530;5.454;2023-11-19T14:37:23;11.90;75.10
78733;DHT22;68056;52.530;5.454;2023-11-19T14:39:48;11.90;75.20
78733;DHT22;68056;52.530;5.454;2023-11-19T14:42:16;11.90;75.20
78733;DHT22;68056;52.530;5.454;2023-11-19T14:44:41;11.90;75.30
78733;DHT22;68056;52.530;5.454;2023-11-19T14:47:07;11.90;75.30
78733;DHT22;68056;52.530;5.454;2023-11-19T14:49:35;11.80;75.30
78733;DHT22;68056;52.530;5.454;2023-11-19T14:52:00;11.80;75.40
78733;DHT22;68056;52.530;5.454;2023-11-19T14:54:26;11.80;75.40
78733;DHT22;68056;52.530;5.454;2023-11-19T14:56:51;11.80;75.40
78733;DHT22;68056;52.530;5.454;2023-11-19T14:59:18;11.80;75.40
78733;DHT22;68056;52.530;5.454;2023-11-19T15:01:45;11.80;75.40
78733;DHT22;68056;52.530;5.454;2023-11-19T15:04:10;11.70;75.50
78733;DHT22;68056;52.530;5.454;2023-11-19T15:06:37;11.70;75.50
78733;DHT22;68056;52.530;5.454;2023-11-19T15:09:03;11.70;75.50
78733;DHT22;68056;52.530;5.454;2023-11-19T15:11:29;11.70;75.50
78733;DHT22;68056;52.530;5.454;2023-11-19T15:13:55;11.70;75.60
78733;DHT22;68056;52.530;5.454;2023-11-19T15:16:20;11.60;75.70
78733;DHT22;68056;52.530;5.454;2023-11-19T15:18:51;11.50;75.80
78733;DHT22;68056;52.530;5.454;2023-11-19T15:21:17;11.50;76.00
78733;DHT22;68056;52.530;5.454;2023-11-19T15:23:43;11.50;76.10
78733;DHT22;68056;52.530;5.454;2023-11-19T15:26:09;11.50;76.30
78733;DHT22;68056;52.530;5.454;2023-11-19T15:28:36;11.40;76.50
78733;DHT22;68056;52.530;5.454;2023-11-19T15:31:02;11.40;76.50
78733;DHT22;68056;52.530;5.454;2023-11-19T15:33:28;11.40;76.60
78733;DHT22;68056;52.530;5.454;2023-11-19T15:35:53;11.40;76.50
78733;DHT22;68056;52.530;5.454;2023-11-19T15:38:19;11.40;76.60
78733;DHT22;68056;52.530;5.454;2023-11-19T15:40:45;11.40;76.70
78733;DHT22;68056;52.530;5.454;2023-11-19T15:43:11;11.40;76.70
78733;DHT22;68056;52.530;5.454;2023-11-19T15:45:36;11.40;76.70
78733;DHT22;68056;52.530;5.454;2023-11-19T15:48:03;11.40;76.70
78733;DHT22;68056;52.530;5.454;2023-11-19T15:50:29;11.50;76.70
78733;DHT22;68056;52.530;5.454;2023-11-19T15:52:54;11.50;76.60
78733;DHT22;68056;52.530;5.454;2023-11-19T15:55:20;11.50;76.70
78733;DHT22;68056;52.530;5.454;2023-11-19T15:57:45;11.50;76.70